createdAt,value
2022-10-18T00:01:27.648Z,101935.75
2022-10-18T00:03:56.204Z,101931.09
2022-10-18T00:06:27.131Z,101941.91
2022-10-18T00:08:55.657Z,101940.94
2022-10-18T00:11:24.624Z,101941.91
2022-10-18T00:13:58.116Z,101940.16
2022-10-18T00:16:27.191Z,101944.78
2022-10-18T00:18:56.031Z,101930.06
2022-10-18T00:21:27.208Z,101936.19
2022-10-18T00:23:55.829Z,101932.41
2022-10-18T00:26:28.842Z,101938.06
2022-10-18T00:29:02.643Z,101932.31
2022-10-18T00:31:34.300Z,101945.91
2022-10-18T00:34:06.223Z,101944.28
2022-10-18T00:36:36.090Z,101954.94
2022-10-18T00:39:07.336Z,101954.00
2022-10-18T00:41:39.311Z,101958.34
2022-10-18T00:44:47.567Z,101961.19
2022-10-18T00:47:18.608Z,101959.78
2022-10-18T00:49:53.743Z,101957.63
2022-10-18T00:52:28.464Z,101966.22
2022-10-18T00:54:59.342Z,101960.97
2022-10-18T00:57:29.842Z,101960.03
2022-10-18T01:00:00.520Z,101963.59
2022-10-18T01:02:30.752Z,101955.06
2022-10-18T01:05:01.096Z,101962.44
2022-10-18T01:07:50.805Z,101961.28
2022-10-18T01:10:29.139Z,101967.09
2022-10-18T01:13:16.892Z,101971.69
2022-10-18T01:15:58.213Z,101972.03
2022-10-18T01:18:34.465Z,101976.28
2022-10-18T01:21:15.481Z,101979.63
2022-10-18T01:24:24.024Z,101981.13
2022-10-18T01:27:14.967Z,101988.25
2022-10-18T01:29:55.271Z,101977.72
2022-10-18T01:32:29.583Z,101977.63
2022-10-18T01:35:04.885Z,101968.88
2022-10-18T01:37:35.006Z,101966.50
2022-10-18T01:40:08.384Z,101970.81
2022-10-18T01:42:36.884Z,101972.78
2022-10-18T01:45:10.379Z,101974.44
2022-10-18T01:47:42.225Z,101979.31
2022-10-18T01:50:11.945Z,101984.44
2022-10-18T01:52:50.448Z,101983.81
2022-10-18T01:55:21.187Z,101990.66
2022-10-18T01:58:01.313Z,101995.81
2022-10-18T02:00:37.905Z,101997.69
2022-10-18T02:03:19.129Z,101999.28
2022-10-18T02:05:53.476Z,101999.81
2022-10-18T02:08:36.477Z,101995.22
2022-10-18T02:11:07.768Z,101994.03
2022-10-18T02:13:41.174Z,101992.44
2022-10-18T02:16:15.110Z,101994.19
2022-10-18T02:18:51.992Z,102002.25
2022-10-18T02:21:22.612Z,101999.09
2022-10-18T02:23:53.862Z,101998.25
2022-10-18T02:26:22.709Z,101999.88
2022-10-18T02:28:51.400Z,102001.53
2022-10-18T02:31:24.388Z,102002.38
2022-10-18T02:34:00.182Z,102001.72
2022-10-18T02:36:35.169Z,102005.19
2022-10-18T02:39:15.462Z,102011.69
2022-10-18T02:41:45.145Z,102012.88
2022-10-18T02:44:13.621Z,102015.16
2022-10-18T02:46:44.286Z,102002.88
2022-10-18T02:49:15.193Z,102003.81
2022-10-18T02:52:09.510Z,102019.84
2022-10-18T02:54:39.108Z,102015.13
2022-10-18T02:57:16.497Z,102024.16
2022-10-18T02:59:44.962Z,102032.31
2022-10-18T03:02:19.303Z,102025.09
2022-10-18T03:04:50.887Z,102022.34
2022-10-18T03:07:19.806Z,102025.56
2022-10-18T03:09:50.376Z,102022.84
2022-10-18T03:12:19.290Z,102020.38
2022-10-18T03:14:56.031Z,102027.47
2022-10-18T03:17:25.639Z,102020.75
2022-10-18T03:19:56.205Z,102016.66
2022-10-18T03:22:25.507Z,102026.25
2022-10-18T03:24:55.739Z,102026.84
2022-10-18T03:27:26.489Z,102030.19
2022-10-18T03:30:01.863Z,102034.97
2022-10-18T03:32:30.594Z,102042.50
2022-10-18T03:35:01.724Z,102034.53
2022-10-18T03:37:32.418Z,102038.03
2022-10-18T03:40:04.056Z,102040.66
2022-10-18T03:42:42.675Z,102045.13
2022-10-18T03:45:11.662Z,102045.97
2022-10-18T03:47:41.975Z,102039.91
2022-10-18T03:50:13.158Z,102056.47
2022-10-18T03:52:41.604Z,102050.47
2022-10-18T03:55:11.439Z,102039.84
2022-10-18T03:57:40.008Z,102048.66
2022-10-18T04:00:09.999Z,102053.19
2022-10-18T04:02:41.336Z,102060.97
2022-10-18T04:05:27.004Z,102066.31
2022-10-18T04:07:55.737Z,102072.75
2022-10-18T04:10:30.793Z,102071.44
2022-10-18T04:12:59.595Z,102072.19
2022-10-18T04:15:28.735Z,102076.47
2022-10-18T04:17:57.240Z,102077.00
2022-10-18T04:20:30.298Z,102076.66
2022-10-18T04:22:58.974Z,102078.41
2022-10-18T04:25:28.890Z,102083.72
2022-10-18T04:27:57.824Z,102083.59
2022-10-18T04:30:27.434Z,102085.41
2022-10-18T04:32:57.331Z,102079.28
2022-10-18T04:35:26.502Z,102076.66
2022-10-18T04:37:58.016Z,102074.03
2022-10-18T04:40:26.587Z,102081.09
2022-10-18T04:42:56.412Z,102074.03
2022-10-18T04:45:26.068Z,102074.06
2022-10-18T04:47:54.822Z,102073.34
2022-10-18T04:50:24.924Z,102075.22
2022-10-18T04:52:54.103Z,102077.88
2022-10-18T04:55:24.030Z,102088.50
2022-10-18T04:57:54.703Z,102098.31
2022-10-18T05:00:24.874Z,102095.88
2022-10-18T05:02:58.130Z,102106.19
2022-10-18T05:05:43.225Z,102099.16
2022-10-18T05:08:16.245Z,102109.66
2022-10-18T05:10:46.391Z,102095.91
2022-10-18T05:13:16.902Z,102095.22
2022-10-18T05:15:47.453Z,102104.00
2022-10-18T05:18:38.701Z,102104.06
2022-10-18T05:21:07.443Z,102100.44
2022-10-18T05:23:37.108Z,102102.28
2022-10-18T05:26:08.940Z,102097.03
2022-10-18T05:28:40.066Z,102104.09
2022-10-18T05:31:11.497Z,102098.00
2022-10-18T05:33:40.981Z,102101.59
2022-10-18T05:36:10.095Z,102106.03
2022-10-18T05:38:42.409Z,102108.66
2022-10-18T05:41:17.042Z,102112.09
2022-10-18T05:43:45.622Z,102116.41
2022-10-18T05:46:15.711Z,102112.88
2022-10-18T05:48:45.653Z,102114.59
2022-10-18T05:51:14.505Z,102116.41
2022-10-18T05:53:44.570Z,102123.47
2022-10-18T05:56:14.629Z,102126.09
2022-10-18T05:58:49.008Z,102132.91
2022-10-18T06:01:19.929Z,102128.72
2022-10-18T06:03:52.314Z,102130.56
2022-10-18T06:06:22.724Z,102137.63
2022-10-18T06:08:52.097Z,102141.13
2022-10-18T06:11:23.342Z,102143.75
2022-10-18T06:13:55.054Z,102139.34
2022-10-18T06:16:27.308Z,102141.97
2022-10-18T06:19:02.478Z,102145.53
2022-10-18T06:21:35.114Z,102141.28
2022-10-18T06:24:04.847Z,102142.91
2022-10-18T06:26:34.825Z,102138.66
2022-10-18T06:29:06.042Z,102142.81
2022-10-18T06:31:52.268Z,102141.91
2022-10-18T06:34:28.944Z,102137.34
2022-10-18T06:37:00.456Z,102144.25
2022-10-18T06:39:37.211Z,102148.59
2022-10-18T06:42:13.834Z,102151.97
2022-10-18T06:44:44.703Z,102155.38
2022-10-18T06:47:13.870Z,102162.09
2022-10-18T06:49:48.246Z,102159.94
2022-10-18T06:52:20.885Z,102160.56
2022-10-18T06:54:49.576Z,102163.81
2022-10-18T06:57:21.864Z,102168.00
2022-10-18T06:59:54.621Z,102170.47
2022-10-18T07:02:24.189Z,102171.84
2022-10-18T07:04:55.270Z,102174.47
2022-10-18T07:07:23.559Z,102175.31
2022-10-18T07:09:51.898Z,102174.47
2022-10-18T07:12:24.031Z,102173.44
2022-10-18T07:14:55.228Z,102178.56
2022-10-18T07:17:25.106Z,102180.16
2022-10-18T07:19:54.607Z,102185.31
2022-10-18T07:22:27.013Z,102187.59
2022-10-18T07:24:59.163Z,102191.88
2022-10-18T07:27:31.014Z,102181.91
2022-10-18T07:30:07.362Z,102187.19
2022-10-18T07:32:36.074Z,102184.56
2022-10-18T07:35:05.437Z,102190.47
2022-10-18T07:37:36.390Z,102198.91
2022-10-18T07:40:05.873Z,102208.16
2022-10-18T07:42:37.186Z,102210.50
2022-10-18T07:45:06.625Z,102214.19
2022-10-18T07:47:35.426Z,102230.91
2022-10-18T07:50:04.163Z,102236.00
2022-10-18T07:52:33.012Z,102240.31
2022-10-18T07:55:01.596Z,102226.13
2022-10-18T07:57:30.328Z,102235.41
2022-10-18T08:00:00.706Z,102246.44
2022-10-18T08:02:29.579Z,102247.06
2022-10-18T08:04:59.551Z,102257.69
2022-10-18T08:07:28.702Z,102258.63
2022-10-18T08:09:57.269Z,102259.06
2022-10-18T08:12:26.315Z,102267.44
2022-10-18T08:18:36.919Z,102292.66
2022-10-18T12:48:54.917Z,102187.50
2022-10-18T12:51:26.227Z,102195.88
2022-10-18T12:54:20.988Z,102185.59
2022-10-18T12:57:10.782Z,102182.88
2022-10-18T12:59:46.009Z,102181.91
2022-10-18T13:03:10.468Z,102191.13
2022-10-18T13:06:14.005Z,102183.84
2022-10-18T13:08:48.757Z,102189.84
2022-10-18T13:11:36.326Z,102180.44
2022-10-18T13:14:35.807Z,102186.16
2022-10-18T13:17:54.941Z,102181.28
2022-10-18T13:21:17.098Z,102188.97
2022-10-18T13:24:07.598Z,102186.66
2022-10-18T13:30:50.530Z,102188.84
2022-10-18T13:34:01.042Z,102199.69
2022-10-18T13:37:22.240Z,102210.13
2022-10-18T13:40:53.793Z,102202.56
2022-10-18T13:45:06.866Z,102204.19
2022-10-18T13:48:24.884Z,102210.47
2022-10-18T13:55:11.194Z,102203.41
2022-10-18T13:59:13.164Z,102204.78
2022-10-18T14:02:50.938Z,102206.91
2022-10-18T14:06:41.100Z,102200.34
2022-10-18T14:09:45.558Z,102197.22
2022-10-18T14:19:58.016Z,102131.47
2022-10-18T14:23:33.336Z,102115.09
2022-10-18T14:33:27.368Z,102112.47
2022-10-18T14:36:11.546Z,102111.97
2022-10-18T14:38:52.167Z,102128.72
2022-10-18T14:41:24.414Z,102122.06
2022-10-18T14:43:54.775Z,102130.50
2022-10-18T14:46:29.118Z,102138.97
2022-10-18T14:49:03.200Z,102142.31
2022-10-18T14:51:36.792Z,102140.50
2022-10-18T14:54:07.524Z,102130.16
2022-10-18T14:56:40.304Z,102137.81
2022-10-18T14:59:17.774Z,102143.88
2022-10-18T15:02:01.808Z,102148.63
2022-10-18T15:04:33.325Z,102138.78
2022-10-18T15:07:05.036Z,102132.09
2022-10-18T15:09:36.677Z,102146.84
2022-10-18T15:12:08.684Z,102162.34
2022-10-18T15:14:38.300Z,102165.56
2022-10-18T15:17:15.593Z,102162.13
2022-10-18T15:19:59.336Z,102159.41
2022-10-18T15:22:33.157Z,102158.00
2022-10-18T15:25:16.561Z,102164.56
2022-10-18T15:27:48.761Z,102157.25
2022-10-18T15:30:21.515Z,102151.72
2022-10-18T15:32:52.823Z,102145.66
2022-10-18T15:35:27.777Z,102141.97
2022-10-18T15:37:58.721Z,102133.63
2022-10-18T15:40:43.490Z,102132.56
2022-10-18T15:43:40.969Z,102121.94
2022-10-18T15:46:33.351Z,102122.00
2022-10-18T15:49:43.205Z,102102.81
2022-10-18T15:52:38.546Z,102100.41
2022-10-18T15:55:48.582Z,102089.41
2022-10-18T15:58:24.026Z,102079.72
2022-10-18T16:00:54.511Z,102078.88
2022-10-18T16:03:24.830Z,102087.19
2022-10-18T16:05:57.576Z,102096.09
2022-10-18T16:08:31.178Z,102102.28
2022-10-18T16:11:01.724Z,102102.50
2022-10-18T16:13:30.206Z,102108.00
2022-10-18T16:15:59.680Z,102116.63
2022-10-18T16:18:30.173Z,102119.72
2022-10-18T16:20:58.880Z,102096.97
2022-10-18T16:23:29.765Z,102106.09
2022-10-18T16:25:58.875Z,102112.81
2022-10-18T16:28:32.536Z,102107.78
2022-10-18T16:31:04.606Z,102115.84
2022-10-18T16:33:33.299Z,102115.53
2022-10-18T16:36:04.972Z,102125.03
2022-10-18T16:38:36.660Z,102121.34
2022-10-18T16:41:06.986Z,102120.63
2022-10-18T16:43:37.262Z,102124.13
2022-10-18T16:46:07.779Z,102129.97
2022-10-18T16:48:39.716Z,102116.78
2022-10-18T16:51:08.793Z,102132.06
2022-10-18T16:53:45.115Z,102135.66
2022-10-18T16:56:18.629Z,102135.88
2022-10-18T16:58:47.742Z,102129.72
2022-10-18T17:01:33.899Z,102133.53
2022-10-18T17:04:24.529Z,102133.28
2022-10-18T17:06:55.679Z,102136.31
2022-10-18T17:09:36.002Z,102133.66
2022-10-18T17:12:13.723Z,102128.50
2022-10-18T17:14:59.896Z,102137.06
2022-10-18T17:18:18.102Z,102136.50
2022-10-18T17:20:57.522Z,102127.41
2022-10-18T17:24:08.683Z,102139.38
2022-10-18T17:27:20.202Z,102137.00
2022-10-18T17:29:56.120Z,102137.47
2022-10-18T17:32:27.542Z,102136.81
2022-10-18T17:35:17.412Z,102138.81
2022-10-18T17:37:53.924Z,102137.97
2022-10-18T17:40:24.322Z,102140.69
2022-10-18T17:43:13.990Z,102122.25
2022-10-18T17:45:49.485Z,102138.56
2022-10-18T17:48:18.055Z,102151.69
2022-10-18T17:50:46.727Z,102160.78
2022-10-18T17:53:22.567Z,102169.03
2022-10-18T17:55:51.108Z,102170.25
2022-10-18T17:58:29.488Z,102180.06
2022-10-18T18:00:59.864Z,102177.44
2022-10-18T18:03:34.318Z,102169.41
2022-10-18T18:06:20.499Z,102166.66
2022-10-18T18:08:51.871Z,102160.78
2022-10-18T18:11:27.186Z,102158.97
2022-10-18T18:13:59.628Z,102160.78
2022-10-18T19:38:00.103Z,102082.97
2022-10-18T19:58:53.207Z,102066.88
2022-10-18T20:06:40.068Z,102058.75
2022-10-18T20:09:13.440Z,102064.78
2022-10-18T20:11:45.066Z,102066.47
2022-10-18T20:14:15.432Z,102069.03
2022-10-18T20:16:44.773Z,102053.78
2022-10-18T20:19:13.258Z,102060.03
2022-10-18T20:21:42.254Z,102060.03
2022-10-18T20:24:13.058Z,102056.63
2022-10-18T20:26:43.681Z,102049.53
2022-10-18T20:29:15.278Z,102046.78
2022-10-18T20:31:44.358Z,102046.78
2022-10-18T20:34:14.028Z,102048.28
2022-10-18T20:36:43.184Z,102048.16
2022-10-18T20:39:11.611Z,102043.63
2022-10-18T20:41:42.959Z,102046.38
2022-10-18T20:44:17.109Z,102056.06
2022-10-18T20:46:47.196Z,102049.91
2022-10-18T20:49:18.026Z,102052.44
2022-10-18T20:51:46.829Z,102052.44
2022-10-18T20:54:15.346Z,102057.63
2022-10-18T20:56:45.582Z,102045.22
2022-10-18T20:59:17.829Z,102052.25
2022-10-18T21:01:47.849Z,102053.84
2022-10-18T21:04:18.329Z,102048.34
2022-10-18T21:06:47.085Z,102054.50
2022-10-18T21:09:17.769Z,102036.91
2022-10-18T21:11:51.587Z,102028.81
2022-10-18T21:14:23.481Z,102011.22
2022-10-18T21:16:54.151Z,102004.22
2022-10-18T21:19:24.260Z,101987.53
2022-10-18T21:21:55.736Z,101980.66
2022-10-18T21:24:25.908Z,101959.22
2022-10-18T21:26:54.929Z,101955.06
2022-10-18T21:29:27.247Z,101972.59
2022-10-18T21:31:58.499Z,102004.22
2022-10-18T21:34:27.499Z,102004.13
2022-10-18T21:36:56.268Z,102004.41
2022-10-18T21:39:25.875Z,101996.34
2022-10-18T21:41:55.029Z,101989.16
2022-10-18T21:44:26.806Z,101973.88
2022-10-18T21:46:55.338Z,101954.75
2022-10-18T21:49:25.504Z,101954.03
2022-10-18T21:51:53.822Z,101959.44
2022-10-18T21:54:22.382Z,101955.84
2022-10-18T21:56:51.433Z,101964.75
2022-10-18T21:59:20.180Z,101959.44
2022-10-18T22:01:50.748Z,101949.78
2022-10-18T22:04:21.562Z,101953.91
2022-10-18T22:07:14.966Z,101951.50
2022-10-18T22:09:43.486Z,101955.84
2022-10-18T22:12:11.996Z,101944.47
2022-10-18T22:14:42.295Z,101949.69
2022-10-18T22:17:12.234Z,101952.41
2022-10-18T22:19:40.847Z,101947.34
2022-10-18T22:22:09.585Z,101950.63
2022-10-18T22:24:39.557Z,101940.97
2022-10-18T22:27:09.294Z,101944.47
2022-10-18T22:29:37.670Z,101943.63
2022-10-18T22:32:06.462Z,101940.97
2022-10-18T22:34:40.083Z,101935.88
2022-10-18T22:37:08.601Z,101926.31
2022-10-18T22:39:38.306Z,101931.63
2022-10-18T22:42:07.143Z,101926.31
2022-10-18T22:44:36.126Z,101926.44
2022-10-18T22:47:05.410Z,101939.78
2022-10-18T22:49:34.005Z,101953.88
2022-10-18T22:52:09.745Z,101948.38
2022-10-18T22:54:39.557Z,101951.97
2022-10-18T22:57:08.423Z,101965.25
2022-10-18T22:59:40.970Z,101962.59
2022-10-18T23:02:10.905Z,101959.84
2022-10-18T23:04:39.563Z,101964.16
2022-10-18T23:07:09.347Z,101970.44
2022-10-18T23:12:07.681Z,101972.13
2022-10-18T23:14:38.991Z,101969.41
2022-10-18T23:17:10.676Z,101969.28
2022-10-18T23:19:42.022Z,101960.47
2022-10-18T23:22:15.180Z,101957.72
2022-10-18T23:24:44.739Z,101957.72
2022-10-18T23:27:15.394Z,101964.75
2022-10-18T23:29:44.089Z,101957.53
2022-10-18T23:32:12.743Z,101946.81
2022-10-18T23:34:41.873Z,101952.88
2022-10-18T23:37:19.349Z,101955.53
2022-10-18T23:39:53.865Z,101952.78
2022-10-18T23:42:23.542Z,101958.06
2022-10-18T23:44:54.448Z,101946.97
2022-10-18T23:47:29.194Z,101944.63
2022-10-18T23:49:59.635Z,101945.47
2022-10-18T23:52:30.104Z,101935.81
2022-10-18T23:54:58.791Z,101935.69
2022-10-18T23:57:27.165Z,101927.75
2022-10-18T23:59:55.737Z,101917.88
